Olga Golovushkina — 9HA3938 — position and weather

sailwx.info

Track history (hours):
 
Tides and Currents Weather Stations Pressure Air Temp Water Temp Dewpoint Dewpoint Depression Visibility Wind Speed Wind Dir Waves Ship Positions

Olga Golovushkina

Last reported at 2017-Nov-30 12:46 UTC. Time now 2017-Dec-12 19:42 UTC.
Position N 45°31' E 036°55'.
Warning: this ship's position is 12 days out of date.

Length 140 m; draft 3.3 m.

Type: Tanker. MMSI: 256518000.

Date/timePositionNaut miles runAvg speedWind from/ knotsBaromVisibWave heightAir tempDewpointWater temp
2017-Nov-30 12:46N 45°31' E 036°55'2 7.5
2017-Nov-30 12:30N 45°29' E 036°54'3 6.1
2017-Nov-30 12:00N 45°29' E 036°49'4 8.8
2017-Nov-30 11:31N 45°27' E 036°44'4 8.9
2017-Nov-30 11:00N 45°23' E 036°40'4 7.7
2017-Nov-30 10:30N 45°20' E 036°36'5 9.1
2017-Nov-30 10:00N 45°19' E 036°30'4 7.1
2017-Nov-30 09:30N 45°15' E 036°28'3 6.6
2017-Nov-30 09:00N 45°12' E 036°29'2 3.6
2017-Nov-30 08:30N 45°11' E 036°30'0 0.0
2017-Nov-30 06:10N 45°11' E 036°30'0 0.0
2017-Nov-30 05:40N 45°11' E 036°30'0 0.0
2017-Nov-30 05:27N 45°11' E 036°30'0 0.0
2017-Nov-30 04:55N 45°11' E 036°30'  
Track history (hours):
 
Tides and Currents Weather Stations Pressure Air Temp Water Temp Dewpoint Dewpoint Depression Visibility Wind Speed Wind Dir Waves Ship Positions

Olga Golovushkina

Last reported at 2017-Nov-30 12:46 UTC. Time now 2017-Dec-12 19:42 UTC.
Position N 45°31' E 036°55'.
Warning: this ship's position is 12 days out of date.

Length 140 m; draft 3.3 m.

Type: Tanker. MMSI: 256518000.

Date/timePositionNaut miles runAvg speedWind from/ knotsBaromVisibWave heightAir tempDewpointWater temp
2017-Nov-30 12:46N 45°31' E 036°55'2 7.5
2017-Nov-30 12:30N 45°29' E 036°54'3 6.1
2017-Nov-30 12:00N 45°29' E 036°49'4 8.8
2017-Nov-30 11:31N 45°27' E 036°44'4 8.9
2017-Nov-30 11:00N 45°23' E 036°40'4 7.7
2017-Nov-30 10:30N 45°20' E 036°36'5 9.1
2017-Nov-30 10:00N 45°19' E 036°30'4 7.1
2017-Nov-30 09:30N 45°15' E 036°28'3 6.6
2017-Nov-30 09:00N 45°12' E 036°29'2 3.6
2017-Nov-30 08:30N 45°11' E 036°30'0 0.0
2017-Nov-30 06:10N 45°11' E 036°30'0 0.0
2017-Nov-30 05:40N 45°11' E 036°30'0 0.0
2017-Nov-30 05:27N 45°11' E 036°30'0 0.0
2017-Nov-30 04:55N 45°11' E 036°30'  

Dump ship's entire track history